createdAt,value
2022-10-02T00:00:09.146Z,11.40
2022-10-02T00:03:40.597Z,11.30
2022-10-02T00:07:07.895Z,11.30
2022-10-02T00:10:38.707Z,11.30
2022-10-02T00:14:05.262Z,11.30
2022-10-02T00:17:35.824Z,11.30
2022-10-02T00:21:06.111Z,11.20
2022-10-02T00:24:38.888Z,11.20
2022-10-02T00:28:14.572Z,11.20
2022-10-02T00:31:44.932Z,11.10
2022-10-02T00:35:36.815Z,11.10
2022-10-02T00:39:07.214Z,11.00
2022-10-02T00:42:55.600Z,11.00
2022-10-02T00:46:36.748Z,10.90
2022-10-02T00:50:15.710Z,10.90
2022-10-02T00:53:49.820Z,10.90
2022-10-02T00:57:23.468Z,10.90
2022-10-02T01:00:54.378Z,10.90
2022-10-02T01:04:25.822Z,10.90
2022-10-02T01:07:53.855Z,10.80
2022-10-02T01:11:21.777Z,10.80
2022-10-02T01:14:45.759Z,10.80
2022-10-02T01:18:14.877Z,10.80
2022-10-02T01:21:47.434Z,10.80
2022-10-02T01:25:13.415Z,10.80
2022-10-02T01:28:37.060Z,10.80
2022-10-02T01:32:01.683Z,10.80
2022-10-02T01:35:28.597Z,10.80
2022-10-02T01:38:53.666Z,10.80
2022-10-02T01:42:18.766Z,10.80
2022-10-02T01:46:04.450Z,10.90
2022-10-02T01:49:57.433Z,10.90
2022-10-02T01:53:30.034Z,10.90
2022-10-02T01:57:02.073Z,11.00
2022-10-02T02:00:31.246Z,11.00
2022-10-02T02:04:01.867Z,11.10
2022-10-02T02:07:35.361Z,11.20
2022-10-02T02:11:10.180Z,11.30
2022-10-02T02:14:36.650Z,11.40
2022-10-02T02:18:07.916Z,11.40
2022-10-02T02:21:34.233Z,11.50
2022-10-02T02:25:02.916Z,11.60
2022-10-02T02:28:28.570Z,11.60
2022-10-02T02:31:55.346Z,11.60
2022-10-02T02:35:25.791Z,11.60
2022-10-02T02:38:53.139Z,11.60
2022-10-02T02:42:25.151Z,11.70
2022-10-02T02:45:54.826Z,11.60
2022-10-02T02:49:18.495Z,11.60
2022-10-02T02:52:49.667Z,11.70
2022-10-02T02:56:17.180Z,11.70
2022-10-02T02:59:45.296Z,11.70
2022-10-02T03:03:08.914Z,11.70
2022-10-02T03:06:38.086Z,11.80
2022-10-02T03:10:13.010Z,11.80
2022-10-02T03:13:51.288Z,11.80
2022-10-02T03:17:27.959Z,11.90
2022-10-02T03:21:02.336Z,11.90
2022-10-02T03:24:36.379Z,11.90
2022-10-02T03:28:09.611Z,11.90
2022-10-02T03:31:34.443Z,11.90
2022-10-02T03:34:58.963Z,12.00
2022-10-02T03:38:25.280Z,12.00
2022-10-02T03:41:48.868Z,12.10
2022-10-02T03:45:27.260Z,12.10
2022-10-02T03:48:59.838Z,12.10
2022-10-02T03:52:24.722Z,12.20
2022-10-02T03:55:53.253Z,12.10
2022-10-02T03:59:24.262Z,12.20
2022-10-02T04:02:53.936Z,12.20
2022-10-02T04:06:22.888Z,12.10
2022-10-02T04:09:52.957Z,12.10
2022-10-02T04:13:21.994Z,12.10
2022-10-02T04:16:50.509Z,12.10
2022-10-02T04:20:19.535Z,12.10
2022-10-02T04:23:48.065Z,12.10
2022-10-02T04:27:16.661Z,12.00
2022-10-02T04:30:40.161Z,11.90
2022-10-02T04:34:06.336Z,11.80
2022-10-02T04:37:58.208Z,11.80
2022-10-02T04:41:33.700Z,11.80
2022-10-02T04:45:29.700Z,11.80
2022-10-02T04:49:17.372Z,11.80
2022-10-02T04:52:57.586Z,11.80
2022-10-02T04:56:50.699Z,11.80
2022-10-02T05:00:17.016Z,11.80
2022-10-02T05:03:54.395Z,11.80
2022-10-02T05:07:41.234Z,11.80
2022-10-02T05:11:23.627Z,11.80
2022-10-02T05:15:08.242Z,11.90
2022-10-02T05:18:55.318Z,12.00
2022-10-02T05:22:46.020Z,12.00
2022-10-02T05:26:36.140Z,12.00
2022-10-02T05:30:10.929Z,12.00
2022-10-02T05:33:51.125Z,12.00
2022-10-02T05:37:30.916Z,12.10
2022-10-02T05:41:02.025Z,12.10
2022-10-02T05:44:35.672Z,12.10
2022-10-02T05:48:07.304Z,12.20
2022-10-02T05:51:38.483Z,12.20
2022-10-02T05:55:14.220Z,12.30
2022-10-02T05:58:42.538Z,12.30
2022-10-02T06:02:15.888Z,12.40
2022-10-02T06:05:47.179Z,12.50
2022-10-02T06:09:19.765Z,12.50
2022-10-02T06:12:50.627Z,12.60
2022-10-02T06:16:22.186Z,12.60
2022-10-02T06:19:54.667Z,12.60
2022-10-02T06:23:22.706Z,12.70
2022-10-02T06:26:52.098Z,12.70
2022-10-02T06:30:17.470Z,12.80
2022-10-02T06:33:41.431Z,12.80
2022-10-02T06:37:22.042Z,12.90
2022-10-02T06:40:51.524Z,13.10
2022-10-02T06:44:22.051Z,13.30
2022-10-02T06:48:00.425Z,13.40
2022-10-02T06:51:32.056Z,13.30
2022-10-02T06:55:13.298Z,13.30
2022-10-02T06:58:49.916Z,13.30
2022-10-02T07:02:29.917Z,13.30
2022-10-02T07:06:17.010Z,13.20
2022-10-02T07:09:58.681Z,13.20
2022-10-02T07:13:38.176Z,13.30
2022-10-02T07:17:22.181Z,13.40
2022-10-02T07:20:55.189Z,13.50
2022-10-02T07:24:35.397Z,13.40
2022-10-02T07:28:08.873Z,13.50
2022-10-02T07:31:46.059Z,13.70
2022-10-02T07:35:34.877Z,13.90
2022-10-02T07:39:08.540Z,14.00
2022-10-02T07:42:54.088Z,14.00
2022-10-02T07:46:24.034Z,14.10
2022-10-02T07:49:57.103Z,14.50
2022-10-02T07:53:28.912Z,14.80
2022-10-02T07:56:54.978Z,14.60
2022-10-02T08:00:20.324Z,14.50
2022-10-02T08:03:48.702Z,14.90
2022-10-02T08:07:14.107Z,15.30
2022-10-02T08:10:40.058Z,15.10
2022-10-02T08:14:10.005Z,15.10
2022-10-02T08:17:40.972Z,14.90
2022-10-02T08:21:12.186Z,15.20
2022-10-02T08:24:44.792Z,16.30
2022-10-02T08:28:17.222Z,17.40
2022-10-02T08:31:40.911Z,18.30
2022-10-02T08:35:12.556Z,18.60
2022-10-02T08:38:42.252Z,18.10
2022-10-02T08:42:36.121Z,17.50
2022-10-02T08:46:34.190Z,17.30
2022-10-02T08:50:30.111Z,17.20
2022-10-02T08:54:21.362Z,16.90
2022-10-02T08:58:13.321Z,16.60
2022-10-02T09:02:11.089Z,17.50
2022-10-02T09:06:19.778Z,17.50
2022-10-02T09:10:31.492Z,17.20
2022-10-02T09:14:18.863Z,16.70
2022-10-02T09:17:53.263Z,16.50
2022-10-02T09:21:19.934Z,16.60
2022-10-02T09:25:17.632Z,17.20
2022-10-02T09:29:24.052Z,17.90
2022-10-02T09:33:32.869Z,18.40
2022-10-02T09:37:28.872Z,18.30
2022-10-02T09:41:27.833Z,18.40
2022-10-02T09:45:29.086Z,20.10
2022-10-02T09:49:29.014Z,21.20
2022-10-02T09:53:44.411Z,21.80
2022-10-02T09:57:46.807Z,23.20
2022-10-02T10:01:43.489Z,22.80
2022-10-02T10:05:57.756Z,22.00
2022-10-02T10:09:46.941Z,20.10
2022-10-02T10:13:46.332Z,19.80
2022-10-02T10:17:56.527Z,19.90
2022-10-02T10:22:01.547Z,20.10
2022-10-02T10:26:00.277Z,19.50
2022-10-02T10:29:55.205Z,19.90
2022-10-02T10:33:41.244Z,20.20
2022-10-02T10:37:24.964Z,19.20
2022-10-02T10:41:21.490Z,18.60
2022-10-02T10:45:22.915Z,18.00
2022-10-02T10:49:15.610Z,18.20
2022-10-02T10:52:57.664Z,18.50
2022-10-02T10:56:37.190Z,17.70
2022-10-02T11:00:21.307Z,17.40
2022-10-02T11:04:26.459Z,17.00
2022-10-02T11:08:07.578Z,16.90
2022-10-02T11:11:40.353Z,17.20
2022-10-02T11:15:24.951Z,17.40
2022-10-02T11:19:21.526Z,17.40
2022-10-02T11:23:23.394Z,17.40
2022-10-02T11:27:06.627Z,17.60
2022-10-02T11:30:42.052Z,17.70
2022-10-02T11:34:33.453Z,18.00
2022-10-02T11:38:29.525Z,18.10
2022-10-02T11:42:17.558Z,17.80
2022-10-02T11:45:55.139Z,17.70
2022-10-02T11:50:00.155Z,17.40
2022-10-02T11:53:51.468Z,17.30
2022-10-02T11:57:25.102Z,17.20
2022-10-02T12:01:14.398Z,17.40
2022-10-02T12:04:47.275Z,17.70
2022-10-02T12:08:18.945Z,17.80
2022-10-02T12:11:49.103Z,17.90
2022-10-02T12:15:25.096Z,17.90
2022-10-02T12:19:05.278Z,17.90
2022-10-02T12:22:54.701Z,17.80
2022-10-02T12:26:48.609Z,17.80
2022-10-02T12:30:16.522Z,17.70
2022-10-02T12:33:52.907Z,17.70
2022-10-02T12:37:26.238Z,17.80
2022-10-02T12:40:59.570Z,17.80
2022-10-02T12:44:58.646Z,17.80
2022-10-02T12:48:36.045Z,17.90
2022-10-02T12:52:15.602Z,17.80
2022-10-02T12:56:07.940Z,17.70
2022-10-02T12:59:41.564Z,17.60
2022-10-02T13:03:34.932Z,17.40
2022-10-02T13:07:30.118Z,17.70
2022-10-02T13:11:05.748Z,17.90
2022-10-02T13:14:46.837Z,17.90
2022-10-02T13:18:33.841Z,18.00
2022-10-02T13:22:04.385Z,18.10
2022-10-02T13:25:49.557Z,18.10
2022-10-02T13:29:45.996Z,17.90
2022-10-02T13:33:28.025Z,17.90
2022-10-02T13:37:06.900Z,18.00
2022-10-02T13:40:41.700Z,18.20
2022-10-02T13:44:13.428Z,18.20
2022-10-02T13:47:43.974Z,17.50
2022-10-02T13:51:10.367Z,16.70
2022-10-02T13:54:54.825Z,16.50
2022-10-02T13:58:37.107Z,16.30
2022-10-02T14:02:21.065Z,15.90
2022-10-02T14:05:47.570Z,16.10
2022-10-02T14:09:34.247Z,16.20
2022-10-02T14:13:11.926Z,16.00
2022-10-02T14:16:51.199Z,15.80
2022-10-02T14:20:28.132Z,15.80
2022-10-02T14:24:16.925Z,15.90
2022-10-02T14:27:59.314Z,15.90
2022-10-02T14:31:58.804Z,16.00
2022-10-02T14:35:33.736Z,16.20
2022-10-02T14:39:22.951Z,16.20
2022-10-02T14:43:14.286Z,16.20
2022-10-02T14:47:03.393Z,16.20
2022-10-02T14:50:43.502Z,16.20
2022-10-02T14:54:33.863Z,16.40
2022-10-02T14:58:31.404Z,16.60
2022-10-02T15:02:14.887Z,16.90
2022-10-02T15:06:09.394Z,17.10
2022-10-02T15:09:42.386Z,17.10
2022-10-02T15:13:10.552Z,16.90
2022-10-02T15:17:01.060Z,16.80
2022-10-02T15:20:37.607Z,16.80
2022-10-02T15:24:33.104Z,16.60
2022-10-02T15:28:31.206Z,16.40
2022-10-02T15:32:21.393Z,16.10
2022-10-02T15:36:15.819Z,16.10
2022-10-02T15:40:00.835Z,16.20
2022-10-02T15:43:43.428Z,16.40
2022-10-02T15:47:20.404Z,16.50
2022-10-02T15:50:51.949Z,16.60
2022-10-02T15:54:30.332Z,16.60
2022-10-02T15:58:09.620Z,16.60
2022-10-02T16:01:48.006Z,16.60
2022-10-02T16:05:33.311Z,16.50
2022-10-02T16:09:17.578Z,16.30
2022-10-02T16:13:07.056Z,16.20
2022-10-02T16:16:56.629Z,16.00
2022-10-02T16:20:42.602Z,15.90
2022-10-02T16:24:32.505Z,15.80
2022-10-02T16:28:09.083Z,15.80
2022-10-02T16:32:03.136Z,15.70
2022-10-02T16:35:54.840Z,15.60
2022-10-02T16:39:38.456Z,15.50
2022-10-02T16:43:43.127Z,15.40
2022-10-02T16:47:14.973Z,15.40
2022-10-02T16:50:53.747Z,15.30
2022-10-02T16:54:25.580Z,15.10
2022-10-02T16:57:55.868Z,15.00
2022-10-02T17:01:28.596Z,14.90
2022-10-02T17:05:05.541Z,14.80
2022-10-02T17:08:35.131Z,14.70
2022-10-02T17:12:07.946Z,14.60
2022-10-02T17:15:39.891Z,14.60
2022-10-02T17:19:23.963Z,14.50
2022-10-02T17:22:58.171Z,14.40
2022-10-02T17:26:31.423Z,14.30
2022-10-02T17:30:00.400Z,14.30
2022-10-02T17:33:27.078Z,14.20
2022-10-02T17:36:59.908Z,14.10
2022-10-02T17:40:28.825Z,14.00
2022-10-02T17:44:02.448Z,14.00
2022-10-02T17:47:48.094Z,14.00
2022-10-02T17:55:55.690Z,13.90
2022-10-02T18:00:03.715Z,13.80
2022-10-02T18:03:49.239Z,13.70
2022-10-02T18:07:35.534Z,13.60
2022-10-02T18:11:06.980Z,13.60
2022-10-02T18:15:00.529Z,13.60
2022-10-02T18:18:36.172Z,13.60
2022-10-02T18:22:15.959Z,13.50
2022-10-02T18:25:50.901Z,13.50
2022-10-02T18:29:54.404Z,13.50
2022-10-02T18:33:45.650Z,13.40
2022-10-02T18:37:24.977Z,13.40
2022-10-02T18:40:55.953Z,13.30
2022-10-02T18:44:44.838Z,13.20
2022-10-02T18:48:21.019Z,13.20
2022-10-02T18:52:10.013Z,13.20
2022-10-02T18:56:04.855Z,13.20
2022-10-02T18:59:41.654Z,13.20
2022-10-02T19:03:23.445Z,13.10
2022-10-02T19:06:52.606Z,13.10
2022-10-02T19:10:29.146Z,13.10
2022-10-02T19:13:52.737Z,13.10
2022-10-02T19:17:23.293Z,13.20
2022-10-02T19:20:54.653Z,13.30
2022-10-02T19:24:23.209Z,13.40
2022-10-02T19:27:51.718Z,13.40
2022-10-02T19:31:22.664Z,13.40
2022-10-02T19:34:51.024Z,13.30
2022-10-02T19:38:27.362Z,13.30
2022-10-02T19:41:56.302Z,13.30
2022-10-02T19:45:26.348Z,13.30
2022-10-02T19:48:57.266Z,13.30
2022-10-02T19:52:47.685Z,13.30
2022-10-02T19:56:15.005Z,13.40
2022-10-02T19:59:42.925Z,13.40
2022-10-02T20:03:11.273Z,13.40
2022-10-02T20:06:37.588Z,13.30
2022-10-02T20:10:04.382Z,13.30
2022-10-02T20:13:37.300Z,13.20
2022-10-02T20:17:10.352Z,13.20
2022-10-02T20:20:36.197Z,13.20
2022-10-02T20:24:01.758Z,13.10
2022-10-02T20:27:34.606Z,13.00
2022-10-02T20:31:04.454Z,12.90
2022-10-02T20:34:31.302Z,12.80
2022-10-02T20:37:57.431Z,12.70
2022-10-02T20:41:24.703Z,12.70
2022-10-02T20:44:50.878Z,12.60
2022-10-02T20:49:07.591Z,12.60
2022-10-02T20:53:08.315Z,12.40
2022-10-02T20:57:04.195Z,12.50
2022-10-02T21:00:37.313Z,12.40
2022-10-02T21:04:41.455Z,12.40
2022-10-02T21:08:50.720Z,12.30
2022-10-02T21:12:43.166Z,12.30
2022-10-02T21:16:31.142Z,12.20
2022-10-02T21:20:56.848Z,12.20
2022-10-02T21:24:51.162Z,12.10
2022-10-02T21:28:52.745Z,12.00
2022-10-02T21:32:41.820Z,12.00
2022-10-02T21:36:10.102Z,12.00
2022-10-02T21:40:10.185Z,12.00
2022-10-02T21:44:04.765Z,11.90
2022-10-02T21:47:51.265Z,11.90
2022-10-02T21:51:50.285Z,11.90
2022-10-02T21:55:51.937Z,11.80
2022-10-02T21:59:42.236Z,11.80
2022-10-02T22:03:35.368Z,11.80
2022-10-02T22:07:07.034Z,11.80
2022-10-02T22:10:43.126Z,11.70
2022-10-02T22:14:12.541Z,11.70
2022-10-02T22:17:52.929Z,11.70
2022-10-02T22:21:32.657Z,11.70
2022-10-02T22:25:20.137Z,11.60
2022-10-02T22:28:49.114Z,11.60
2022-10-02T22:32:46.085Z,11.60
2022-10-02T22:36:29.868Z,11.60
2022-10-02T22:40:02.171Z,11.60
2022-10-02T22:43:33.250Z,11.50
2022-10-02T22:47:09.464Z,11.40
2022-10-02T22:50:41.175Z,11.40
2022-10-02T22:54:21.392Z,11.30
2022-10-02T22:57:49.744Z,11.30
2022-10-02T23:01:22.591Z,11.30
2022-10-02T23:04:53.292Z,11.30
2022-10-02T23:08:26.429Z,11.30
2022-10-02T23:11:59.770Z,11.30
2022-10-02T23:15:32.262Z,11.30
2022-10-02T23:19:03.129Z,11.30
2022-10-02T23:22:32.330Z,11.20
2022-10-02T23:26:01.364Z,11.20
2022-10-02T23:29:36.337Z,11.20
2022-10-02T23:33:05.518Z,11.10
2022-10-02T23:36:36.428Z,11.00
2022-10-02T23:40:20.632Z,11.00
2022-10-02T23:43:51.150Z,10.90
2022-10-02T23:47:26.990Z,10.80
2022-10-02T23:51:00.126Z,10.70
2022-10-02T23:54:44.997Z,10.70
2022-10-02T23:58:29.458Z,10.60
